Time;durP1;ratioP1;P1;durP2;ratioP2;P2;SDS_P1;SDS_P2;PMS_P1;PMS_P2;Temp;Humidity;BMP_temperature;BMP_pressure;BME280_temperature;BME280_humidity;BME280_pressure;Samples;Min_cycle;Max_cycle;Signal;HPM_P1;HPM_P2
2022/12/21 00:01:41;;;;;;;7.78;4.20;;;;;;;7.68;100.00;101221.91;5094440;27;97796;-30
2022/12/21 00:04:07;;;;;;;7.20;3.05;;;;;;;7.67;100.00;101226.41;5094683;27;96574;-31
2022/12/21 00:06:35;;;;;;;7.18;2.80;;;;;;;7.69;100.00;101220.94;5075833;27;96830;-30
2022/12/21 00:09:02;;;;;;;7.47;3.50;;;;;;;7.68;100.00;101221.91;5075278;27;100695;-31
2022/12/21 00:11:30;;;;;;;5.88;3.22;;;;;;;7.65;100.00;101223.78;5075519;27;101101;-30
2022/12/21 00:13:57;;;;;;;8.48;3.63;;;;;;;7.66;100.00;101222.84;5075632;27;96703;-30
2022/12/21 00:16:26;;;;;;;7.80;3.33;;;;;;;7.64;100.00;101216.63;5075955;27;96837;-30
2022/12/21 00:18:52;;;;;;;8.82;2.90;;;;;;;7.59;100.00;101213.25;5075255;27;100917;-30
2022/12/21 00:21:20;;;;;;;8.40;3.65;;;;;;;7.56;100.00;101213.41;5075359;27;100899;-30
2022/12/21 00:23:47;;;;;;;7.72;3.20;;;;;;;7.54;100.00;101206.31;5074945;27;96796;-30
2022/12/21 00:26:15;;;;;;;4.05;2.45;;;;;;;7.53;100.00;101205.47;5074758;27;96873;-30
2022/12/21 00:28:41;;;;;;;12.95;4.13;;;;;;;7.49;100.00;101194.88;5075021;27;100868;-29
2022/12/21 00:31:10;;;;;;;7.93;3.85;;;;;;;7.46;100.00;101201.28;5094213;27;96548;-30
2022/12/21 00:33:37;;;;;;;7.15;3.78;;;;;;;7.43;100.00;101198.69;5075167;27;96675;-30
2022/12/21 00:36:03;;;;;;;6.82;3.65;;;;;;;7.41;100.00;101198.78;5075294;27;96830;-30
2022/12/21 00:38:28;;;;;;;9.23;3.95;;;;;;;7.39;100.00;101199.78;5074960;27;102261;-30
2022/12/21 00:40:59;;;;;;;4.85;3.15;;;;;;;7.37;100.00;101196.28;5094214;27;97760;-30
2022/12/21 00:43:25;;;;;;;6.35;3.40;;;;;;;7.32;100.00;101200.97;5075096;27;96726;-30
2022/12/21 00:45:50;;;;;;;7.93;4.07;;;;;;;7.28;100.00;101202.91;5093770;27;96891;-30
2022/12/21 00:48:15;;;;;;;9.63;3.17;;;;;;;7.26;100.00;101196.72;5093034;27;98002;-30
2022/12/21 00:50:41;;;;;;;5.50;3.17;;;;;;;7.22;100.00;101181.59;5093074;27;98878;-30
2022/12/21 00:53:08;;;;;;;5.93;3.08;;;;;;;7.22;100.00;101187.91;5093715;27;96592;-30
2022/12/21 00:55:34;;;;;;;7.75;3.28;;;;;;;7.22;100.00;101189.69;5075141;27;96687;-30
2022/12/21 00:58:00;;;;;;;6.03;3.58;;;;;;;7.20;100.00;101192.47;5074848;27;100822;-30
2022/12/21 01:00:25;;;;;;;6.45;3.35;;;;;;;7.20;100.00;101205.94;5074736;27;100865;-30
2022/12/21 01:02:51;;;;;;;8.57;3.58;;;;;;;7.16;100.00;101201.63;5074773;27;96704;-30
2022/12/21 01:05:16;;;;;;;4.80;2.78;;;;;;;7.17;100.00;101206.03;5093853;27;97004;-30
2022/12/21 01:07:41;;;;;;;6.07;2.70;;;;;;;7.12;100.00;101197.28;5093100;27;98789;-30
2022/12/21 01:10:08;;;;;;;6.97;3.50;;;;;;;7.14;100.00;101199.94;5093354;27;99176;-30
2022/12/21 01:12:34;;;;;;;4.78;2.97;;;;;;;7.13;100.00;101201.75;5074252;27;97274;-30
2022/12/21 01:14:59;;;;;;;5.90;3.17;;;;;;;7.11;100.00;101205.44;5093498;27;96502;-30
2022/12/21 01:17:25;;;;;;;5.40;3.15;;;;;;;7.07;100.00;101199.28;5093082;27;99447;-31
2022/12/21 01:19:50;;;;;;;5.38;2.92;;;;;;;7.09;100.00;101208.19;5092839;27;97375;-30
2022/12/21 01:22:16;;;;;;;7.05;4.03;;;;;;;7.07;100.00;101207.38;5093173;27;96588;-29
2022/12/21 01:24:41;;;;;;;7.00;3.90;;;;;;;7.04;100.00;101209.34;5092883;27;96830;-30
2022/12/21 01:27:06;;;;;;;5.78;3.28;;;;;;;7.03;100.00;101211.13;5093191;27;97584;-29
2022/12/21 01:29:32;;;;;;;5.65;3.28;;;;;;;7.01;100.00;101208.53;5093311;27;98304;-30
2022/12/21 01:31:57;;;;;;;7.28;3.15;;;;;;;7.03;100.00;101219.22;5093571;27;96427;-30
2022/12/21 01:34:22;;;;;;;8.57;3.30;;;;;;;7.00;100.00;101214.81;5093084;27;96747;-30
2022/12/21 01:36:48;;;;;;;4.05;2.05;;;;;;;7.01;100.00;101227.38;5092517;27;97825;-29
2022/12/21 01:39:13;;;;;;;5.28;3.15;;;;;;;6.98;100.00;101221.22;5093196;27;97775;-29
2022/12/21 01:41:38;;;;;;;6.72;3.97;;;;;;;6.96;100.00;101229.38;5093081;27;96455;-30
2022/12/21 01:44:42;;;;;;;7.80;3.45;;;;;;;7.00;100.00;101233.69;5093138;27;96739;-31
2022/12/21 01:47:17;;;;;;;6.75;3.33;;;;;;;7.00;100.00;101238.19;5092350;27;97621;-30
2022/12/21 01:49:45;;;;;;;5.90;3.17;;;;;;;7.00;100.00;101230.13;5092930;27;97585;-31
2022/12/21 01:52:12;;;;;;;6.57;3.33;;;;;;;7.01;100.00;101227.38;5077758;27;96660;-30
2022/12/21 01:54:52;;;;;;;7.57;4.28;;;;;;;7.02;100.00;101231.81;5097030;27;96720;-30
2022/12/21 01:57:17;;;;;;;10.35;4.22;;;;;;;7.04;100.00;101225.50;5077607;27;100989;-30
2022/12/21 01:59:50;;;;;;;7.88;3.45;;;;;;;7.00;100.00;101227.41;5096446;27;97856;-30
2022/12/21 02:02:31;;;;;;;7.03;3.65;;;;;;;7.02;100.00;101233.63;5077202;27;96684;-30
2022/12/21 02:05:06;;;;;;;8.13;3.33;;;;;;;7.00;100.00;101224.72;5077643;27;96688;-30
2022/12/21 02:07:32;;;;;;;9.88;4.95;;;;;;;7.00;100.00;101220.22;5077527;27;101221;-30
2022/12/21 02:09:58;;;;;;;13.50;4.35;;;;;;;7.02;100.00;101228.25;5077194;27;101536;-30
2022/12/21 02:12:24;;;;;;;8.93;4.05;;;;;;;7.04;100.00;101222.81;5077627;27;96772;-29
2022/12/21 02:14:51;;;;;;;8.45;3.28;;;;;;;7.03;100.00;101216.50;5077629;27;96636;-30
2022/12/21 02:17:25;;;;;;;8.10;3.67;;;;;;;7.06;100.00;101220.94;5096179;27;97827;-30
2022/12/21 02:20:17;;;;;;;4.88;3.33;;;;;;;7.05;100.00;101211.06;5077505;27;100744;-30
2022/12/21 02:23:34;;;;;;;6.55;3.78;;;;;;;7.03;100.00;101211.13;5077466;27;96550;-31
2022/12/21 02:26:17;;;;;;;6.70;3.97;;;;;;;7.04;100.00;101206.66;5060323;27;96860;-29
2022/12/21 02:29:16;;;;;;;9.23;3.85;;;;;;;7.04;100.00;101209.34;5095101;27;98224;-31
2022/12/21 02:32:03;;;;;;;4.63;2.72;;;;;;;7.04;100.00;101206.66;5096161;27;97741;-30
2022/12/21 02:34:50;;;;;;;10.95;4.32;;;;;;;7.02;100.00;101202.19;5096390;27;96570;-30
2022/12/21 02:37:16;;;;;;;6.93;3.28;;;;;;;7.04;100.00;101207.50;5096376;27;96523;-30
2022/12/21 02:39:48;;;;;;;6.90;3.85;;;;;;;7.00;100.00;101204.06;5095917;27;97516;-31
2022/12/21 02:44:12;;;;;;;7.53;3.83;;;;;;;6.99;100.00;101206.84;5095495;27;99206;-31
2022/12/21 02:45:22;;;;;;;12.48;4.65;;;;;;;7.01;100.00;101213.03;5095556;27;96624;-29
2022/12/21 02:47:55;;;;;;;7.88;3.38;;;;;;;7.00;100.00;101220.22;5095873;27;96762;-30
2022/12/21 02:50:28;;;;;;;9.27;3.92;;;;;;;6.98;100.00;101210.44;5076742;27;101309;-29
2022/12/21 02:52:57;;;;;;;9.20;4.50;;;;;;;7.00;100.00;101217.53;5076874;27;100924;-29
2022/12/21 02:55:26;;;;;;;9.30;3.90;;;;;;;6.99;100.00;101212.22;5094986;27;96680;-30
2022/12/21 02:58:11;;;;;;;10.90;4.05;;;;;;;6.99;100.00;101214.91;5076495;27;96972;-29
2022/12/21 03:00:50;;;;;;;6.65;3.83;;;;;;;6.96;100.00;101213.22;5095084;27;99388;-30
2022/12/21 03:06:21;;;;;;;8.68;3.92;;;;;;;6.96;100.00;101210.53;5095002;27;96501;-30
2022/12/21 03:09:11;;;;;;;5.50;3.83;;;;;;;6.93;100.00;101196.28;5076540;27;96753;-30
2022/12/21 03:11:42;;;;;;;8.82;3.65;;;;;;;6.98;100.00;101200.56;5076343;27;101039;-30
2022/12/21 03:14:34;;;;;;;8.43;4.18;;;;;;;6.99;100.00;101194.22;5095312;27;97958;-30
2022/12/21 03:17:06;;;;;;;6.43;2.58;;;;;;;6.97;100.00;101200.63;5090704;27;96827;-30
2022/12/21 03:19:43;;;;;;;8.35;4.10;;;;;;;6.99;100.00;101190.66;5095147;27;96520;-29
2022/12/21 03:22:42;;;;;;;7.65;3.75;;;;;;;6.99;100.00;101198.75;5075959;27;101481;-29
2022/12/21 03:25:14;;;;;;;6.65;3.70;;;;;;;6.98;100.00;101200.56;5093986;27;97861;-29
2022/12/21 03:27:44;;;;;;;7.53;4.07;;;;;;;6.98;100.00;101192.50;5095334;27;96538;-30
2022/12/21 03:30:13;;;;;;;9.55;4.82;;;;;;;6.97;100.00;101184.47;5076234;27;96761;-30
2022/12/21 03:32:45;;;;;;;10.00;4.07;;;;;;;6.98;100.00;101189.81;5094588;27;99642;-30
2022/12/21 03:35:16;;;;;;;;;;;;;;;6.97;100.00;101187.16;5076461;27;100825;-30
2022/12/21 03:37:44;;;;;;;6.00;2.92;;;;;;;6.95;100.00;101181.81;5095181;27;96668;-29
2022/12/21 03:40:15;;;;;;;7.40;3.78;;;;;;;6.94;100.00;101190.00;5076571;27;96829;-30
2022/12/21 03:42:48;;;;;;;6.00;3.15;;;;;;;6.96;100.00;101186.28;5075945;27;101284;-30
2022/12/21 03:45:26;;;;;;;6.10;3.35;;;;;;;6.96;100.00;101193.47;5075901;27;101222;-29
2022/12/21 03:48:18;;;;;;;4.18;2.85;;;;;;;6.94;100.00;101179.22;5075599;27;97069;-30
2022/12/21 03:50:49;;;;;;;4.70;2.70;;;;;;;6.98;100.00;101175.44;5076022;27;96787;-31
2022/12/21 03:53:43;;;;;;;5.80;3.10;;;;;;;6.95;100.00;101165.66;5075784;27;100742;-31
2022/12/21 03:56:16;;;;;;;4.80;2.88;;;;;;;6.99;100.00;101190.66;5075674;27;100783;-30
2022/12/21 03:58:42;;;;;;;7.32;4.05;;;;;;;6.98;100.00;101196.97;5075848;27;96562;-31
2022/12/21 04:01:21;;;;;;;7.90;3.05;;;;;;;6.95;100.00;101189.91;5094593;27;96752;-30
2022/12/21 04:03:54;;;;;;;7.10;2.80;;;;;;;6.91;100.00;101191.00;5075639;27;99165;-29
2022/12/21 04:06:23;;;;;;;4.68;2.85;;;;;;;6.92;100.00;101194.56;5075941;27;101042;-30
2022/12/21 04:08:48;;;;;;;5.65;3.83;;;;;;;6.91;100.00;101182.91;5075623;27;96674;-30
2022/12/21 04:13:59;;;;;;;5.20;2.70;;;;;;;6.92;100.00;101181.97;5093649;27;97035;-30
2022/12/21 04:16:25;;;;;;;4.38;3.10;;;;;;;6.90;100.00;101177.56;5075393;27;101114;-30
2022/12/21 04:21:34;;;;;;;5.00;3.30;;;;;;;6.89;100.00;101168.63;5078687;27;96494;-30
2022/12/21 04:29:27;;;;;;;3.78;2.67;;;;;;;6.87;100.00;101158.88;5093769;27;96754;-30
2022/12/21 04:31:53;;;;;;;8.23;4.10;;;;;;;6.88;100.00;101168.69;5094765;27;96797;-31
2022/12/21 04:34:19;;;;;;;8.57;4.15;;;;;;;6.84;100.00;101165.25;5093912;27;97867;-30
2022/12/21 04:39:28;;;;;;;6.45;3.47;;;;;;;6.81;100.00;101182.38;5093108;27;96542;-30
2022/12/21 04:41:54;;;;;;;4.47;2.83;;;;;;;6.79;100.00;101172.63;5093679;27;96789;-29
2022/12/21 04:44:20;;;;;;;5.22;3.47;;;;;;;6.79;100.00;101180.69;5093717;27;97554;-31
2022/12/21 04:46:45;;;;;;;8.77;4.30;;;;;;;6.77;100.00;101178.09;5093552;27;99594;-29
2022/12/21 04:49:10;;;;;;;10.60;3.97;;;;;;;6.82;100.00;101185.97;5093680;27;96523;-29
2022/12/21 04:51:36;;;;;;;6.07;3.53;;;;;;;6.83;100.00;101178.78;5093943;27;96469;-30
2022/12/21 04:54:03;;;;;;;6.70;3.72;;;;;;;6.86;100.00;101181.31;5093732;27;97282;-30
2022/12/21 04:56:28;;;;;;;6.38;3.85;;;;;;;6.81;100.00;101174.31;5094133;27;97326;-31
2022/12/21 04:58:53;;;;;;;5.90;4.00;;;;;;;6.79;100.00;101176.22;5093486;27;96515;-30
2022/12/21 05:01:21;;;;;;;5.97;3.58;;;;;;;6.78;100.00;101177.13;5093765;27;96764;-29
2022/12/21 05:03:47;;;;;;;6.18;3.50;;;;;;;6.79;100.00;101173.53;5074298;27;100979;-30
2022/12/21 05:06:15;;;;;;;7.25;4.25;;;;;;;6.79;100.00;101168.13;5074672;27;100854;-31
2022/12/21 05:08:41;;;;;;;7.05;3.88;;;;;;;6.81;100.00;101170.75;5074676;27;96758;-30
2022/12/21 05:11:20;;;;;;;9.05;3.90;;;;;;;6.83;100.00;101173.38;5074474;27;96721;-30
2022/12/21 05:13:46;;;;;;;4.65;3.17;;;;;;;6.81;100.00;101166.22;5074765;27;101241;-30
2022/12/21 05:16:23;;;;;;;7.18;4.47;;;;;;;6.83;100.00;101173.38;5093496;27;97301;-30
2022/12/21 05:18:50;;;;;;;6.88;3.83;;;;;;;6.79;100.00;101168.13;5074662;27;96789;-30
2022/12/21 05:21:16;;;;;;;8.95;5.18;;;;;;;6.78;100.00;101160.97;5075004;27;97455;-30
2022/12/21 05:23:42;;;;;;;9.70;4.00;;;;;;;6.76;100.00;101157.47;5074247;27;101223;-30
2022/12/21 05:26:08;;;;;;;8.10;4.50;;;;;;;6.75;100.00;101169.19;5094883;27;97543;-30
2022/12/21 05:28:34;;;;;;;10.32;4.70;;;;;;;6.77;100.00;101170.00;5077618;27;96926;-31
2022/12/21 05:30:59;;;;;;;5.53;3.53;;;;;;;6.78;100.00;101168.19;5096939;27;96785;-29
2022/12/21 05:33:24;;;;;;;11.80;5.93;;;;;;;6.76;100.00;101164.66;5096562;27;99146;-30
2022/12/21 05:35:49;;;;;;;11.32;4.50;;;;;;;6.76;100.00;101167.38;5096780;27;97433;-30
2022/12/21 05:38:15;;;;;;;6.30;3.75;;;;;;;6.79;100.00;101173.53;5096691;27;96629;-31
2022/12/21 05:40:48;;;;;;;10.20;3.53;;;;;;;6.78;100.00;101162.81;5078192;27;96891;-29
2022/12/21 05:43:13;;;;;;;6.20;3.70;;;;;;;6.77;100.00;101164.63;5077856;27;101297;-32
2022/12/21 05:45:38;;;;;;;8.63;3.85;;;;;;;6.76;100.00;101165.53;5096600;27;99553;-29
2022/12/21 05:48:04;;;;;;;8.10;4.43;;;;;;;6.78;100.00;101168.19;5096721;27;96646;-29
2022/12/21 05:50:29;;;;;;;7.50;4.72;;;;;;;6.78;100.00;101165.50;5096410;27;96824;-31
2022/12/21 05:52:55;;;;;;;6.30;3.05;;;;;;;6.73;100.00;101160.28;5095894;27;97484;-30
2022/12/21 05:55:20;;;;;;;6.63;4.18;;;;;;;6.72;100.00;101161.25;5096675;27;97363;-30
2022/12/21 05:57:45;;;;;;;7.55;3.40;;;;;;;6.74;100.00;101159.34;5096319;27;96470;-30
2022/12/21 06:00:11;;;;;;;6.18;3.45;;;;;;;6.74;100.00;101151.25;5096364;27;96752;-31
2022/12/21 06:02:37;;;;;;;6.90;3.47;;;;;;;6.72;100.00;101158.56;5095986;27;99788;-30
2022/12/21 06:05:03;;;;;;;7.55;3.63;;;;;;;6.69;100.00;101150.56;5096393;27;99046;-30
2022/12/21 06:07:29;;;;;;;5.57;4.15;;;;;;;6.69;100.00;101153.28;5077578;27;96624;-31
2022/12/21 06:09:54;;;;;;;14.90;4.38;;;;;;;6.70;100.00;101148.78;5096630;27;96778;-31
2022/12/21 06:12:20;;;;;;;7.95;3.35;;;;;;;6.70;100.00;101146.09;5096331;27;97490;-29
2022/12/21 06:14:45;;;;;;;6.70;4.03;;;;;;;6.68;100.00;101151.53;5096142;27;97115;-30
2022/12/21 06:17:10;;;;;;;8.38;4.32;;;;;;;6.68;100.00;101150.66;5095735;27;96628;-30
2022/12/21 06:19:36;;;;;;;4.65;3.25;;;;;;;6.67;100.00;101151.59;5096063;27;96762;-29
2022/12/21 06:22:01;;;;;;;7.97;4.35;;;;;;;6.70;100.00;101156.88;5095851;27;97440;-30
2022/12/21 06:24:26;;;;;;;7.57;4.35;;;;;;;6.71;100.00;101143.31;5096230;27;97200;-29
2022/12/21 06:26:52;;;;;;;10.55;4.70;;;;;;;6.68;100.00;101138.06;5096216;27;96803;-29
2022/12/21 06:29:17;;;;;;;7.57;3.55;;;;;;;6.68;100.00;101135.38;5095821;27;96793;-30
2022/12/21 06:31:42;;;;;;;6.93;3.60;;;;;;;6.68;100.00;101137.22;5095782;27;97960;-29
2022/12/21 06:34:11;;;;;;;12.75;4.03;;;;;;;6.62;100.00;101143.69;5095833;27;99465;-31
2022/12/21 06:36:36;;;;;;;5.63;3.05;;;;;;;6.59;100.00;101147.38;5095292;27;96584;-30
2022/12/21 06:39:02;;;;;;;5.50;3.63;;;;;;;6.57;100.00;101151.94;5095872;27;96805;-30
2022/12/21 06:41:27;;;;;;;8.00;4.28;;;;;;;6.58;100.00;101158.22;5095331;27;98072;-29
2022/12/21 06:43:53;;;;;;;5.65;3.38;;;;;;;6.58;100.00;101152.84;5095704;27;97776;-29
2022/12/21 06:46:19;;;;;;;5.30;3.40;;;;;;;6.58;100.00;101150.16;5095800;27;96818;-29
2022/12/21 06:48:45;;;;;;;5.68;3.72;;;;;;;6.57;100.00;101146.56;5076855;27;96553;-30
2022/12/21 06:51:17;;;;;;;6.32;3.45;;;;;;;6.55;100.00;101163.72;5076803;27;100985;-31
2022/12/21 06:53:44;;;;;;;6.53;3.50;;;;;;;6.55;100.00;101171.78;5076829;27;100938;-30
2022/12/21 06:56:15;;;;;;;7.35;3.78;;;;;;;6.54;100.00;101178.13;5095472;27;96659;-29
2022/12/21 06:58:40;;;;;;;7.18;4.30;;;;;;;6.55;100.00;101186.16;5077233;27;96766;-30
2022/12/21 07:01:07;;;;;;;4.97;3.33;;;;;;;6.57;100.00;101199.53;5095444;27;97888;-29
2022/12/21 07:03:32;;;;;;;6.03;3.15;;;;;;;6.56;100.00;101203.16;5095178;27;97850;-30
2022/12/21 07:05:58;;;;;;;5.15;2.95;;;;;;;6.54;100.00;101194.28;5094625;27;96471;-30
2022/12/21 07:08:23;;;;;;;4.45;2.92;;;;;;;6.54;100.00;101199.66;5095349;27;96806;-31
2022/12/21 07:10:49;;;;;;;5.38;3.17;;;;;;;6.58;100.00;101201.28;5094994;27;99761;-29
2022/12/21 07:13:15;;;;;;;6.15;3.47;;;;;;;6.56;100.00;101201.34;5095295;27;97753;-30
2022/12/21 07:15:40;;;;;;;6.85;4.22;;;;;;;6.55;100.00;101191.53;5095134;27;96540;-29
2022/12/21 07:18:05;;;;;;;5.97;3.50;;;;;;;6.56;100.00;101198.66;5095535;27;96782;-30
2022/12/21 07:20:31;;;;;;;8.07;3.85;;;;;;;6.54;100.00;101200.53;5094750;27;97444;-30
2022/12/21 07:22:56;;;;;;;4.47;3.00;;;;;;;6.55;100.00;101186.16;5095457;27;97791;-30
2022/12/21 07:25:21;;;;;;;4.30;2.63;;;;;;;6.55;100.00;101193.31;5094876;27;96499;-29
2022/12/21 07:27:47;;;;;;;4.15;3.05;;;;;;;6.54;100.00;101187.06;5095410;27;96781;-29
2022/12/21 07:30:13;;;;;;;6.35;2.97;;;;;;;6.56;100.00;101176.25;5094097;27;97562;-30
2022/12/21 07:32:39;;;;;;;6.03;3.50;;;;;;;6.58;100.00;101171.69;5076071;27;100698;-29
2022/12/21 07:35:04;;;;;;;7.85;3.20;;;;;;;6.61;100.00;101173.38;5094866;27;96637;-30
2022/12/21 07:37:30;;;;;;;7.47;3.08;;;;;;;6.62;100.00;101176.00;5094799;27;96869;-29
2022/12/21 07:39:55;;;;;;;4.93;3.05;;;;;;;6.61;100.00;101173.38;5094426;27;97835;-29
2022/12/21 07:42:21;;;;;;;3.72;2.58;;;;;;;6.57;100.00;101172.63;5094502;27;97486;-30
2022/12/21 07:44:46;;;;;;;7.68;3.47;;;;;;;6.58;100.00;101177.06;5076100;27;96658;-30
2022/12/21 07:47:12;;;;;;;9.30;3.20;;;;;;;6.53;100.00;101176.34;5094590;27;96870;-30
2022/12/21 07:49:37;;;;;;;5.35;2.88;;;;;;;6.53;100.00;101184.44;5093404;27;98001;-30
2022/12/21 07:52:02;;;;;;;5.97;3.33;;;;;;;6.48;100.00;101172.97;5094324;27;99229;-29
2022/12/21 07:54:28;;;;;;;4.10;2.53;;;;;;;6.47;100.00;101177.47;5093746;27;96747;-30
2022/12/21 07:56:53;;;;;;;4.28;2.88;;;;;;;6.50;100.00;101184.56;5094761;27;96741;-29
2022/12/21 07:59:19;;;;;;;2.60;1.95;;;;;;;6.46;100.00;101181.13;5074768;27;100964;-30
2022/12/21 08:01:44;;;;;;;5.82;2.83;;;;;;;6.50;100.00;101187.25;5094171;27;97357;-30
2022/12/21 08:04:09;;;;;;;6.28;3.40;;;;;;;6.49;100.00;101189.06;5092091;27;96971;-30
2022/12/21 08:06:35;;;;;;;8.88;2.80;;;;;;;6.49;100.00;101185.50;5092757;27;97311;-30
2022/12/21 08:09:00;;;;;;;6.88;2.08;;;;;;;6.49;100.00;101188.19;5092419;27;97535;-29
2022/12/21 08:11:28;;;;;;;5.80;2.83;;;;;;;6.51;100.00;101195.28;5092492;27;99143;-30
2022/12/21 08:13:55;;;;;;;5.65;3.20;;;;;;;6.51;100.00;101186.31;5073537;27;96812;-30
2022/12/21 08:16:20;;;;;;;3.30;2.65;;;;;;;6.51;100.00;101189.03;5073808;27;97149;-31
2022/12/21 08:18:46;;;;;;;4.22;3.03;;;;;;;6.54;100.00;101203.22;5092395;27;99240;-30
2022/12/21 08:21:12;;;;;;;11.98;3.00;;;;;;;6.52;100.00;101191.63;5075319;27;101083;-30
2022/12/21 08:23:38;;;;;;;4.50;2.65;;;;;;;6.53;100.00;101195.19;5093968;27;96439;-29
2022/12/21 08:26:06;;;;;;;6.10;3.70;;;;;;;6.55;100.00;101201.41;5074970;27;96917;-29
2022/12/21 08:28:32;;;;;;;4.35;2.70;;;;;;;6.56;100.00;101200.47;5074870;27;101023;-30
2022/12/21 08:31:06;;;;;;;4.03;2.90;;;;;;;6.58;100.00;101209.38;5075296;27;100909;-29
2022/12/21 08:33:32;;;;;;;4.28;2.90;;;;;;;6.57;100.00;101212.97;5075422;27;96605;-30
2022/12/21 08:35:57;;;;;;;5.78;2.92;;;;;;;6.57;100.00;101208.47;5075621;27;96818;-29
2022/12/21 08:38:22;;;;;;;7.28;3.15;;;;;;;6.59;100.00;101219.19;5093939;27;97874;-29
2022/12/21 08:40:48;;;;;;;10.73;3.30;;;;;;;6.57;100.00;101210.28;5094132;27;97305;-29
2022/12/21 08:43:14;;;;;;;6.43;3.35;;;;;;;6.58;100.00;101207.53;5093064;27;96544;-29
2022/12/21 08:45:39;;;;;;;10.13;3.38;;;;;;;6.59;100.00;101208.41;5093558;27;96825;-30
2022/12/21 08:48:05;;;;;;;9.13;3.22;;;;;;;6.61;100.00;101195.78;5093559;27;99310;-31
2022/12/21 08:50:30;;;;;;;4.68;2.97;;;;;;;6.58;100.00;101194.09;5074824;27;100817;-30
2022/12/21 08:52:55;;;;;;;4.03;2.75;;;;;;;6.60;100.00;101185.94;5093718;27;96557;-29
2022/12/21 08:55:21;;;;;;;3.78;2.25;;;;;;;6.62;100.00;101185.88;5093672;27;96847;-29
2022/12/21 08:57:46;;;;;;;4.30;2.47;;;;;;;6.64;100.00;101194.78;5093652;27;97980;-29
2022/12/21 09:00:12;;;;;;;3.22;2.45;;;;;;;6.65;100.00;101183.06;5094023;27;99300;-30
2022/12/21 09:02:38;;;;;;;7.75;2.50;;;;;;;6.68;100.00;101183.84;5093547;27;96541;-30
2022/12/21 09:05:04;;;;;;;6.35;2.65;;;;;;;6.75;100.00;101193.41;5093283;27;96833;-29
2022/12/21 09:07:29;;;;;;;3.75;2.85;;;;;;;6.79;100.00;101202.22;5074306;27;101240;-29
2022/12/21 09:09:55;;;;;;;7.88;3.33;;;;;;;6.80;100.00;101204.88;5093443;27;97970;-29
2022/12/21 09:12:20;;;;;;;6.78;2.63;;;;;;;6.80;100.00;101195.94;5093423;27;97222;-29
2022/12/21 09:14:45;;;;;;;4.80;2.63;;;;;;;6.83;100.00;101194.94;5093375;27;96846;-30
2022/12/21 09:17:11;;;;;;;4.68;2.75;;;;;;;6.86;100.00;101195.66;5093278;27;97856;-29
2022/12/21 09:19:36;;;;;;;2.92;2.38;;;;;;;6.92;100.00;101199.94;5093175;27;97369;-30
2022/12/21 09:22:02;;;;;;;4.70;2.80;;;;;;;6.93;100.00;101198.97;5093438;27;96600;-29
2022/12/21 09:24:27;;;;;;;5.90;2.92;;;;;;;6.94;100.00;101181.91;5075026;27;96882;-30
2022/12/21 09:26:53;;;;;;;5.50;2.70;;;;;;;6.98;100.00;101186.22;5092662;27;98824;-30
2022/12/21 09:29:19;;;;;;;3.83;2.33;;;;;;;6.99;100.00;101178.06;5092535;27;99192;-29
2022/12/21 09:31:45;;;;;;;11.13;2.53;;;;;;;7.02;100.00;101185.16;5092561;27;96662;-30
2022/12/21 09:34:11;;;;;;;3.72;2.28;;;;;;;7.04;100.00;101182.41;5074363;27;96882;-29
2022/12/21 09:36:36;;;;;;;4.70;3.28;;;;;;;7.05;100.00;101176.94;5074332;27;101130;-31
2022/12/21 09:39:02;;;;;;;4.30;2.22;;;;;;;7.06;100.00;101177.84;5092734;27;99199;-29
2022/12/21 09:41:27;;;;;;;6.70;2.42;;;;;;;7.02;100.00;101190.53;5074388;27;96610;-30
2022/12/21 09:44:08;;;;;;;3.83;2.28;;;;;;;7.01;100.00;101195.06;5093060;27;96809;-31
2022/12/21 09:46:38;;;;;;;8.25;2.80;;;;;;;6.97;100.00;101192.53;5074191;27;101189;-30
2022/12/21 09:49:10;;;;;;;4.78;2.42;;;;;;;6.96;100.00;101190.78;5074649;27;100751;-29
2022/12/21 09:51:36;;;;;;;3.38;2.40;;;;;;;6.95;100.00;101197.13;5074499;27;96580;-31
2022/12/21 09:54:15;;;;;;;4.32;2.42;;;;;;;6.91;100.00;101198.16;5074282;27;96842;-30
2022/12/21 09:56:45;;;;;;;4.55;2.78;;;;;;;6.86;100.00;101195.66;5073705;27;101054;-30
2022/12/21 09:59:14;;;;;;;5.68;2.53;;;;;;;6.85;100.00;101198.44;5074098;27;100902;-30
2022/12/21 10:01:51;;;;;;;7.25;3.65;;;;;;;6.84;100.00;101196.66;5074188;27;96619;-29
2022/12/21 10:04:25;;;;;;;5.50;3.38;;;;;;;6.86;100.00;101200.19;5074327;27;96754;-30
2022/12/21 10:07:27;;;;;;;6.55;4.00;;;;;;;6.84;100.00;101196.66;5073898;27;100997;-30
2022/12/21 10:10:04;;;;;;;7.50;4.15;;;;;;;6.80;100.00;101198.63;5092539;27;97815;-30
2022/12/21 10:12:59;;;;;;;4.88;3.20;;;;;;;6.79;100.00;101203.13;5095594;27;96545;-30
2022/12/21 10:15:39;;;;;;;11.38;4.07;;;;;;;6.76;100.00;101200.53;5077915;27;96883;-31
2022/12/21 10:18:20;;;;;;;7.82;3.97;;;;;;;6.78;100.00;101197.81;5077436;27;101554;-29
2022/12/21 10:20:46;;;;;;;13.52;3.65;;;;;;;6.76;100.00;101205.94;5077157;27;99385;-30
2022/12/21 10:23:36;;;;;;;5.88;2.92;;;;;;;6.77;100.00;101201.44;5095583;27;96506;-30
2022/12/21 10:26:05;;;;;;;8.80;4.35;;;;;;;6.77;100.00;101201.44;5095514;27;96780;-29
2022/12/21 10:28:51;;;;;;;14.38;5.35;;;;;;;6.76;100.00;101200.53;5095527;27;99668;-30
2022/12/21 10:31:37;;;;;;;7.05;4.55;;;;;;;6.73;100.00;101199.81;5095728;27;97136;-30
2022/12/21 10:34:13;;;;;;;8.52;4.78;;;;;;;6.71;100.00;101202.53;5095961;27;96648;-29
2022/12/21 10:36:39;;;;;;;8.30;5.50;;;;;;;6.68;100.00;101199.97;5077322;27;96972;-30
2022/12/21 10:39:05;;;;;;;6.07;3.78;;;;;;;6.67;100.00;101208.97;5076958;27;101255;-29
2022/12/21 10:41:38;;;;;;;8.85;4.80;;;;;;;6.66;100.00;101212.63;5096239;27;97808;-29
2022/12/21 10:44:04;;;;;;;8.15;3.72;;;;;;;6.67;100.00;101205.41;5077231;27;96693;-29
2022/12/21 10:46:32;;;;;;;7.65;4.63;;;;;;;6.70;100.00;101199.94;5077176;27;96833;-30
2022/12/21 10:49:15;;;;;;;12.82;4.72;;;;;;;6.69;100.00;101198.16;5076238;27;100827;-31
2022/12/21 10:51:40;;;;;;;11.55;5.07;;;;;;;6.69;100.00;101199.03;5076889;27;101247;-29
2022/12/21 10:54:08;;;;;;;12.60;4.93;;;;;;;6.70;100.00;101202.63;5095770;27;96488;-30
2022/12/21 10:56:41;;;;;;;9.85;5.22;;;;;;;6.70;100.00;101208.00;5076796;27;96808;-29
2022/12/21 10:59:19;;;;;;;6.97;4.22;;;;;;;6.68;100.00;101199.13;5076441;27;100781;-30
2022/12/21 11:01:44;;;;;;;7.57;4.70;;;;;;;6.63;100.00;101196.59;5076713;27;101278;-30
2022/12/21 11:04:13;;;;;;;6.57;3.67;;;;;;;6.66;100.00;101199.16;5095432;27;96502;-30
2022/12/21 11:06:38;;;;;;;7.35;3.75;;;;;;;6.68;100.00;101201.81;5095665;27;96523;-31
2022/12/21 11:09:41;;;;;;;9.15;5.18;;;;;;;6.69;100.00;101203.53;5095001;27;100111;-29
2022/12/21 11:12:21;;;;;;;8.90;5.20;;;;;;;6.67;100.00;101198.22;5076518;27;100942;-30
2022/12/21 11:14:48;;;;;;;9.90;3.72;;;;;;;6.72;100.00;101201.63;5076169;27;96941;-29
2022/12/21 11:17:22;;;;;;;9.13;4.72;;;;;;;6.71;100.00;101190.91;5076656;27;96837;-32
2022/12/21 11:19:56;;;;;;;9.27;4.85;;;;;;;6.75;100.00;101198.81;5076224;27;101498;-30
2022/12/21 11:22:27;;;;;;;11.18;4.88;;;;;;;6.75;100.00;101190.72;5075712;27;100913;-30
2022/12/21 11:24:56;;;;;;;12.00;3.97;;;;;;;6.77;100.00;101190.69;5075657;27;96861;-30
2022/12/21 11:27:27;;;;;;;12.07;5.65;;;;;;;6.78;100.00;101187.91;5076504;27;96696;-31
2022/12/21 11:29:56;;;;;;;8.63;4.38;;;;;;;6.79;100.00;101188.78;5076053;27;100907;-30
2022/12/21 11:32:23;;;;;;;8.52;4.63;;;;;;;6.81;100.00;101181.50;5076273;27;101560;-30
2022/12/21 11:34:53;;;;;;;10.98;5.50;;;;;;;6.80;100.00;101175.25;5076136;27;96774;-30
2022/12/21 11:37:38;;;;;;;12.25;4.65;;;;;;;6.79;100.00;101162.75;5094828;27;96794;-30
2022/12/21 11:40:25;;;;;;;12.00;4.85;;;;;;;6.84;100.00;101170.63;5075461;27;101344;-30
2022/12/21 11:42:59;;;;;;;8.27;5.30;;;;;;;6.87;100.00;101162.44;5094378;27;99266;-29
2022/12/21 11:45:46;;;;;;;11.13;4.32;;;;;;;6.88;100.00;101160.59;5094924;27;96467;-30
2022/12/21 11:48:17;;;;;;;13.57;3.90;;;;;;;6.90;100.00;101164.13;5094836;27;96723;-29
2022/12/21 11:50:45;;;;;;;11.77;5.45;;;;;;;6.92;100.00;101144.25;5094422;27;97472;-30